Time;durP1;ratioP1;P1;durP2;ratioP2;P2;SDS_P1;SDS_P2;PMS_P1;PMS_P2;Temp;Humidity;BMP_temperature;BMP_pressure;BME280_temperature;BME280_humidity;BME280_pressure;Samples;Min_cycle;Max_cycle;Signal;HPM_P1;HPM_P2
2022/01/04 00:01:03;;;;;;;7.10;4.55;;;8.20;99.90;;;9.44;100.00;99205.97;5037043;28;20116;-78
2022/01/04 00:03:32;;;;;;;6.75;4.20;;;8.20;99.90;;;9.41;100.00;99190.81;5054164;28;20039;-79
2022/01/04 00:05:57;;;;;;;8.93;4.78;;;8.20;99.90;;;9.44;100.00;99189.25;5056388;28;20049;-78
2022/01/04 00:08:27;;;;;;;7.25;3.95;;;8.10;99.90;;;9.34;100.00;99187.19;5039550;28;20079;-80
2022/01/04 00:11:06;;;;;;;10.55;3.80;;;8.10;99.90;;;9.30;100.00;99187.16;5055173;28;20048;-80
2022/01/04 00:13:32;;;;;;;7.90;4.22;;;8.10;99.90;;;9.39;100.00;99172.91;5037382;28;20056;-78
2022/01/04 00:15:59;;;;;;;9.23;3.85;;;8.10;99.90;;;9.38;100.00;99180.44;5036527;28;20115;-78
2022/01/04 00:18:28;;;;;;;6.22;3.83;;;8.10;99.90;;;9.37;100.00;99167.72;5036923;28;20041;-76
2022/01/04 00:20:56;;;;;;;6.40;3.88;;;8.10;99.90;;;9.34;100.00;99160.13;5054296;28;20118;-77
2022/01/04 00:23:22;;;;;;;11.45;4.70;;;8.00;99.90;;;9.33;100.00;99160.50;5037011;28;20064;-77
2022/01/04 00:25:48;;;;;;;6.93;4.47;;;8.10;99.90;;;9.31;100.00;99152.53;5070006;28;20088;-79
2022/01/04 00:28:17;;;;;;;6.60;3.60;;;8.00;99.90;;;9.28;100.00;99144.94;5077218;28;20450;-77
2022/01/04 00:30:44;;;;;;;11.00;4.18;;;8.00;99.90;;;9.25;100.00;99144.91;5077351;28;20387;-78
2022/01/04 00:33:14;;;;;;;7.53;4.50;;;8.00;99.90;;;9.20;100.00;99146.09;5059010;28;20028;-80
2022/01/04 00:35:40;;;;;;;6.22;4.13;;;8.00;99.90;;;9.17;100.00;99137.69;5060654;28;20032;-79
2022/01/04 00:38:10;;;;;;;5.95;4.00;;;8.00;99.90;;;9.10;100.00;99135.66;5060690;28;20032;-78
2022/01/04 00:40:39;;;;;;;11.07;4.32;;;7.90;99.90;;;9.10;100.00;99129.28;5078182;28;20036;-78
2022/01/04 00:43:06;;;;;;;4.13;3.15;;;7.90;99.90;;;9.14;100.00;99125.34;5077535;28;20088;-79
2022/01/04 00:45:36;;;;;;;8.90;4.68;;;7.90;99.90;;;9.06;100.00;99125.66;5059640;28;20027;-77
2022/01/04 00:50:37;;;;;;;8.75;3.65;;;7.80;99.90;;;8.99;100.00;99113.28;5077978;28;20029;-79
2022/01/04 00:53:06;;;;;;;9.63;3.88;;;7.80;99.90;;;8.98;100.00;99103.34;5077074;28;20029;-79
2022/01/04 00:55:35;;;;;;;7.07;3.60;;;7.80;99.90;;;8.94;100.00;99096.94;5059052;28;20107;-78
2022/01/04 00:58:04;;;;;;;5.78;3.95;;;7.80;99.90;;;8.88;100.00;99097.66;5076885;28;20081;-79
2022/01/04 01:00:31;;;;;;;8.95;3.58;;;7.80;99.90;;;9.04;100.00;99095.41;5059601;28;20407;-78
2022/01/04 01:02:58;;;;;;;8.35;3.75;;;7.80;99.90;;;8.96;100.00;99091.75;5091992;28;20084;-78
2022/01/04 01:05:26;;;;;;;6.30;3.45;;;7.80;99.90;;;8.96;100.00;99090.97;5090352;28;20027;-78
2022/01/04 01:07:54;;;;;;;8.00;3.80;;;7.70;99.90;;;8.88;100.00;99083.75;5090953;28;20096;-77
2022/01/04 01:13:21;;;;;;;4.15;2.72;;;7.70;99.90;;;8.93;100.00;99070.25;5078262;28;20035;-78
2022/01/04 01:15:47;;;;;;;6.13;3.35;;;7.70;99.90;;;8.87;100.00;99059.88;5085823;28;20044;-79
2022/01/04 01:18:17;;;;;;;7.55;3.22;;;7.70;99.90;;;8.87;100.00;99063.44;5077068;28;20034;-80
2022/01/04 01:20:49;;;;;;;7.03;3.42;;;7.60;99.90;;;8.83;100.00;99051.47;5059251;28;20033;-79
2022/01/04 01:23:21;;;;;;;7.32;4.03;;;7.60;99.90;;;8.86;100.00;99045.13;5058679;28;20082;-80
2022/01/04 01:25:48;;;;;;;4.93;3.17;;;7.60;99.90;;;8.76;100.00;99039.50;5064465;28;20025;-80
2022/01/04 01:28:18;;;;;;;6.53;3.58;;;7.60;99.90;;;8.77;100.00;99030.75;5056478;28;20032;-77
2022/01/04 01:30:45;;;;;;;5.90;3.42;;;7.60;99.90;;;8.73;100.00;99037.50;5056717;28;20446;-77
2022/01/04 01:33:12;;;;;;;6.03;3.00;;;7.60;99.90;;;8.79;100.00;99036.75;5056483;28;20075;-80
2022/01/04 01:35:40;;;;;;;6.47;3.42;;;7.60;99.90;;;8.78;100.00;99024.00;5056240;28;20357;-76
2022/01/04 01:38:08;;;;;;;8.45;3.78;;;7.50;99.90;;;8.77;100.00;99027.16;5057265;28;20047;-78
2022/01/04 01:40:36;;;;;;;6.40;3.10;;;7.50;99.90;;;8.68;100.00;99027.50;5056880;28;20021;-78
2022/01/04 01:43:04;;;;;;;6.22;3.78;;;7.50;99.90;;;8.63;100.00;99019.50;5056812;28;20036;-78
2022/01/04 01:45:31;;;;;;;5.38;3.40;;;7.50;99.90;;;8.59;100.00;99020.66;5057689;28;20040;-76
2022/01/04 01:47:57;;;;;;;6.47;3.88;;;7.50;99.90;;;8.66;100.00;99017.94;5057235;28;20536;-77
2022/01/04 01:50:23;;;;;;;6.53;3.83;;;7.50;99.90;;;8.71;100.00;99007.25;5056985;28;20139;-77
2022/01/04 01:52:52;;;;;;;6.93;3.83;;;7.40;99.90;;;8.65;100.00;99005.19;5039618;28;20021;-80
2022/01/04 01:55:21;;;;;;;5.80;4.10;;;7.40;99.90;;;8.51;100.00;98997.53;5042648;28;20691;-79
2022/01/04 01:57:49;;;;;;;9.48;4.10;;;7.40;99.90;;;8.57;100.00;98996.00;5068076;28;20041;-79
2022/01/04 02:00:27;;;;;;;7.53;4.68;;;7.40;99.90;;;8.52;100.00;99006.69;5068241;28;20056;-79
2022/01/04 02:02:54;;;;;;;9.52;4.18;;;7.40;99.90;;;8.59;100.00;99009.53;5063276;28;20025;-78
2022/01/04 02:05:21;;;;;;;7.00;4.68;;;7.40;99.90;;;8.55;100.00;99001.16;5059483;28;20078;-79
2022/01/04 02:07:48;;;;;;;7.57;5.10;;;7.40;99.90;;;8.50;100.00;99000.72;5038440;28;20184;-79
2022/01/04 02:10:14;;;;;;;8.30;4.25;;;7.30;99.90;;;8.59;100.00;99003.97;5056486;28;20037;-79
2022/01/04 02:12:47;;;;;;;7.78;4.97;;;7.40;99.90;;;8.48;100.00;98991.97;5037503;28;20510;-78
2022/01/04 02:15:21;;;;;;;7.20;4.50;;;7.30;99.90;;;8.56;100.00;98994.41;5036827;28;20028;-78
2022/01/04 02:17:49;;;;;;;5.32;4.00;;;7.30;99.90;;;8.58;100.00;98994.81;5076045;23;20044;-81
2022/01/04 02:20:17;;;;;;;7.72;4.28;;;7.30;99.90;;;8.56;100.00;98977.72;5073093;28;20029;-79
2022/01/04 02:22:45;;;;;;;6.30;4.15;;;7.30;99.90;;;8.56;100.00;98976.91;5073424;28;20032;-80
2022/01/04 02:25:12;;;;;;;7.53;4.65;;;7.30;99.90;;;8.60;100.00;98977.75;5072705;28;20420;-80
2022/01/04 02:27:41;;;;;;;6.80;4.50;;;7.30;99.90;;;8.60;100.00;98974.97;5072744;28;20024;-79
2022/01/04 02:30:17;;;;;;;7.32;4.60;;;7.30;99.90;;;8.48;100.00;98966.91;5072415;28;20039;-78
2022/01/04 02:32:44;;;;;;;;;;;7.30;99.90;;;8.48;100.00;98964.13;5055246;28;20089;-79
2022/01/04 02:35:13;;;;;;;10.88;5.32;;;7.30;99.90;;;8.50;100.00;98965.34;5054460;28;19909;-79
2022/01/04 02:37:39;;;;;;;10.95;5.50;;;7.30;99.90;;;8.46;100.00;98967.28;5054264;28;20100;-79
2022/01/04 02:40:06;;;;;;;8.73;6.00;;;7.30;99.90;;;8.46;100.00;98967.28;5055090;28;20343;-80
2022/01/04 02:42:35;;;;;;;12.23;6.03;;;7.30;99.90;;;8.56;100.00;98954.66;5055027;28;20108;-80
2022/01/04 02:45:04;;;;;;;9.68;6.15;;;7.30;99.90;;;8.52;100.00;98964.94;5055670;28;20033;-78
2022/01/04 02:47:40;;;;;;;11.75;6.70;;;7.20;99.90;;;8.50;100.00;98956.19;5072732;28;20024;-78
2022/01/04 02:50:12;;;;;;;10.65;7.28;;;7.20;99.90;;;8.43;100.00;98956.94;5073305;28;20028;-78
2022/01/04 02:52:38;;;;;;;11.93;6.68;;;7.20;99.90;;;8.50;100.00;98945.88;5072632;28;20059;-78
2022/01/04 02:55:10;;;;;;;11.75;7.00;;;7.20;99.90;;;8.36;100.00;98940.16;5072888;28;20497;-78
2022/01/04 02:57:40;;;;;;;10.20;6.78;;;7.20;99.90;;;8.44;100.00;98939.06;5072653;28;20040;-79
2022/01/04 03:00:15;;;;;;;11.52;7.30;;;7.20;99.90;;;8.36;100.00;98935.41;5055805;28;20032;-79
2022/01/04 03:02:42;;;;;;;12.35;7.22;;;7.20;99.90;;;8.39;100.00;98942.97;5073684;28;20031;-79
2022/01/04 03:05:10;;;;;;;11.75;7.25;;;7.20;99.90;;;8.35;100.00;98928.25;5073571;28;20028;-79
2022/01/04 03:07:36;;;;;;;10.02;6.95;;;7.20;99.90;;;8.38;100.00;98940.59;5054427;28;20036;-79
2022/01/04 03:10:06;;;;;;;9.55;6.75;;;7.20;99.90;;;8.41;100.00;98934.28;5054356;28;20172;-78
2022/01/04 03:12:34;;;;;;;8.88;6.22;;;7.20;99.90;;;8.44;100.00;98931.50;5072628;28;20032;-79
2022/01/04 03:15:02;;;;;;;8.27;5.68;;;7.20;99.90;;;8.38;100.00;98924.69;5073551;28;20025;-80
2022/01/04 03:17:31;;;;;;;10.55;6.18;;;7.10;99.90;;;8.39;100.00;98926.28;5072626;28;20112;-79
2022/01/04 03:19:57;;;;;;;10.93;6.40;;;7.20;99.90;;;8.42;100.00;98933.06;5076469;28;20029;-80
2022/01/04 03:22:23;;;;;;;10.02;6.22;;;7.10;99.90;;;8.43;100.00;98924.34;5074508;28;20047;-82
2022/01/04 03:24:57;;;;;;;9.45;5.57;;;7.10;99.90;;;8.39;100.00;98914.38;5087804;28;20444;-82
2022/01/04 03:27:26;;;;;;;9.32;5.25;;;7.20;99.90;;;8.46;100.00;98918.00;5041224;28;20056;-79
2022/01/04 03:29:52;;;;;;;9.05;5.70;;;7.10;99.90;;;8.42;100.00;98917.19;5034373;28;20025;-78
2022/01/04 03:32:18;;;;;;;8.40;5.18;;;7.10;99.90;;;8.40;100.00;98907.63;5053656;28;20371;-78
2022/01/04 03:34:44;;;;;;;10.88;5.70;;;7.10;99.90;;;8.44;100.00;98906.44;5052610;28;20024;-79
2022/01/04 03:37:13;;;;;;;9.88;5.18;;;7.10;99.90;;;8.27;100.00;98897.94;5052108;28;20036;-78
2022/01/04 03:39:38;;;;;;;8.82;5.88;;;7.10;99.90;;;8.29;100.00;98892.81;5033874;28;20112;-78
2022/01/04 03:42:05;;;;;;;8.88;6.00;;;7.10;99.90;;;8.35;100.00;98880.16;5051670;28;20409;-78
2022/01/04 03:44:31;;;;;;;6.80;4.97;;;7.10;99.90;;;8.31;100.00;98862.66;5033913;28;20048;-78
2022/01/04 03:46:57;;;;;;;9.63;5.70;;;7.10;99.90;;;8.28;100.00;98855.09;5053019;28;20021;-79
2022/01/04 03:49:24;;;;;;;9.40;5.40;;;7.10;99.90;;;8.30;100.00;98852.72;5051888;28;20082;-79
2022/01/04 03:51:50;;;;;;;13.13;6.18;;;7.10;99.90;;;8.25;100.00;98858.63;5034055;28;20039;-79
2022/01/04 03:54:19;;;;;;;12.30;6.82;;;7.00;99.90;;;8.26;100.00;98849.88;5033775;28;20047;-80
2022/01/04 03:56:46;;;;;;;7.50;5.55;;;7.00;99.90;;;8.35;100.00;98835.66;5052068;28;20025;-79
2022/01/04 03:59:12;;;;;;;11.02;5.70;;;7.00;99.90;;;8.36;100.00;98837.25;5054970;28;20025;-81
2022/01/04 04:01:38;;;;;;;8.07;5.68;;;7.00;99.90;;;8.35;100.00;98838.44;5055651;28;20384;-79
2022/01/04 04:04:04;;;;;;;8.93;5.63;;;7.00;99.90;;;8.38;100.00;98826.56;5037449;28;20125;-79
2022/01/04 04:06:33;;;;;;;8.10;5.55;;;7.00;99.90;;;8.32;100.00;98820.53;5056173;28;20021;-81
2022/01/04 04:08:59;;;;;;;6.65;4.57;;;7.00;99.90;;;8.32;100.00;98805.84;5037687;28;20025;-77
2022/01/04 04:11:25;;;;;;;8.15;5.75;;;7.00;99.90;;;8.31;100.00;98807.84;5055618;28;20503;-79
2022/01/04 04:13:52;;;;;;;9.02;5.85;;;7.00;99.90;;;8.11;100.00;98800.09;5037266;28;20049;-80
2022/01/04 04:16:18;;;;;;;9.35;5.30;;;7.00;99.90;;;8.21;100.00;98791.84;5037878;28;20480;-80
2022/01/04 04:18:44;;;;;;;8.68;5.55;;;7.00;99.90;;;8.25;100.00;98775.19;5037131;28;20040;-79
2022/01/04 04:21:10;;;;;;;8.52;6.25;;;7.00;99.90;;;8.15;100.00;98776.72;5055608;28;20392;-79
2022/01/04 04:23:43;;;;;;;11.27;6.70;;;7.00;99.90;;;8.11;100.00;98777.84;5055424;28;20048;-79
2022/01/04 04:26:12;;;;;;;10.90;6.38;;;7.00;99.90;;;8.18;100.00;98775.13;5070556;28;20017;-78
2022/01/04 04:28:38;;;;;;;10.45;7.35;;;7.00;99.90;;;8.03;100.00;98759.56;5065672;28;20032;-80
2022/01/04 04:31:05;;;;;;;8.80;6.15;;;6.90;99.90;;;8.22;100.00;98757.25;5087926;28;20036;-80
2022/01/04 04:33:32;;;;;;;11.82;7.10;;;7.00;99.90;;;8.23;100.00;98756.09;5077033;28;20075;-80
2022/01/04 04:35:58;;;;;;;12.80;6.90;;;7.00;99.90;;;8.31;100.00;98751.41;5076674;28;20114;-79
2022/01/04 04:38:24;;;;;;;10.07;6.38;;;7.00;99.90;;;8.34;100.00;98757.00;5076483;28;20111;-79
2022/01/04 04:40:50;;;;;;;12.38;7.40;;;7.00;99.90;;;8.26;100.00;98743.38;5075857;28;20506;-79
2022/01/04 04:43:16;;;;;;;10.13;6.43;;;7.00;99.90;;;8.27;100.00;98742.22;5075361;28;20025;-80
2022/01/04 04:45:42;;;;;;;11.95;6.55;;;7.00;99.90;;;8.35;100.00;98738.31;5056844;28;20035;-80
2022/01/04 04:48:08;;;;;;;12.98;6.97;;;7.00;99.90;;;8.37;100.00;98747.06;5056764;28;20031;-78
2022/01/04 04:50:34;;;;;;;13.82;6.60;;;7.00;99.90;;;8.26;100.00;98733.06;5074814;28;20048;-78
2022/01/04 04:53:01;;;;;;;14.48;7.13;;;7.00;99.90;;;8.10;100.00;98732.56;5075704;28;20050;-80
2022/01/04 04:55:33;;;;;;;12.70;7.13;;;7.00;99.90;;;8.15;100.00;98728.63;5057232;28;20396;-78
2022/01/04 04:58:00;;;;;;;11.32;6.45;;;7.00;99.90;;;8.21;100.00;98727.88;5075859;28;20028;-79
2022/01/04 05:00:26;;;;;;;12.30;7.55;;;7.00;99.90;;;8.23;100.00;98716.34;5057173;28;20028;-79
2022/01/04 05:02:52;;;;;;;10.90;6.80;;;7.00;99.90;;;8.19;100.00;98709.97;5074740;28;20446;-80
2022/01/04 05:05:18;;;;;;;10.57;6.70;;;7.00;99.90;;;8.24;100.00;98717.97;5075276;28;20029;-80
2022/01/04 05:07:47;;;;;;;10.05;6.72;;;7.00;99.90;;;8.12;100.00;98713.53;5074944;28;20036;-80
2022/01/04 05:10:13;;;;;;;10.38;6.10;;;7.00;99.90;;;8.28;100.00;98711.25;5057506;28;20429;-76
2022/01/04 05:12:39;;;;;;;8.85;5.97;;;7.00;99.90;;;8.24;100.00;98721.53;5057369;28;20056;-79
2022/01/04 05:15:14;;;;;;;9.13;5.57;;;7.00;99.90;;;8.27;100.00;98712.41;5075658;28;20040;-79
2022/01/04 05:17:40;;;;;;;9.85;6.07;;;7.00;99.90;;;8.28;100.00;98716.81;5074936;28;20392;-77
2022/01/04 05:20:08;;;;;;;10.02;5.47;;;7.00;99.90;;;8.29;100.00;98712.03;5075504;28;20261;-80
2022/01/04 05:22:34;;;;;;;8.38;5.18;;;7.00;99.90;;;8.20;100.00;98720.72;5075258;28;20399;-80
2022/01/04 05:25:00;;;;;;;8.77;5.68;;;7.00;99.90;;;8.29;100.00;98712.84;5070239;28;20025;-79
2022/01/04 05:27:26;;;;;;;11.13;6.00;;;7.00;99.90;;;8.37;100.00;98713.69;5056178;28;20457;-81
2022/01/04 05:29:52;;;;;;;7.70;5.75;;;7.00;99.90;;;8.35;100.00;98711.28;5055486;28;20383;-80
2022/01/04 05:32:18;;;;;;;11.95;5.07;;;7.00;99.90;;;8.38;100.00;98710.50;5037611;28;20033;-80
2022/01/04 05:34:44;;;;;;;6.28;4.60;;;7.00;99.90;;;8.32;100.00;98711.28;5055564;28;20060;-79
2022/01/04 05:37:10;;;;;;;7.72;5.03;;;7.00;99.90;;;7.94;100.00;98718.97;5037307;28;20029;-80
2022/01/04 05:39:36;;;;;;;9.25;5.65;;;7.00;99.90;;;7.85;100.00;98707.41;5055015;28;20052;-78
2022/01/04 05:42:08;;;;;;;8.50;4.82;;;7.00;99.90;;;7.81;100.00;98717.69;5036702;28;20036;-78
2022/01/04 05:44:36;;;;;;;10.30;5.03;;;7.00;99.90;;;7.86;100.00;98709.00;5037023;28;20029;-79
2022/01/04 05:47:06;;;;;;;10.90;5.82;;;7.00;99.90;;;8.17;100.00;98706.78;5055249;28;20044;-79
2022/01/04 05:49:33;;;;;;;11.27;6.00;;;7.00;99.90;;;8.26;100.00;98696.91;5037144;28;20028;-79
2022/01/04 05:51:59;;;;;;;8.50;5.95;;;7.00;99.90;;;8.31;100.00;98698.56;5054533;28;20545;-79
2022/01/04 05:54:24;;;;;;;8.98;5.95;;;7.00;99.90;;;8.35;100.00;98694.59;5036962;28;20037;-79
2022/01/04 05:56:50;;;;;;;11.27;6.05;;;7.00;99.90;;;8.34;100.00;98697.78;5036441;28;20037;-79
2022/01/04 05:59:16;;;;;;;8.63;5.57;;;7.00;99.90;;;8.32;100.00;98697.34;5054821;28;20038;-76
2022/01/04 06:01:42;;;;;;;9.35;6.10;;;7.00;99.90;;;8.30;100.00;98688.63;5054440;28;20032;-78
2022/01/04 06:04:10;;;;;;;8.90;5.63;;;7.00;99.90;;;8.35;100.00;98679.88;5037392;28;20033;-78
2022/01/04 06:06:38;;;;;;;10.80;6.60;;;7.00;99.90;;;8.25;100.00;98670.28;5054644;28;20036;-77
2022/01/04 06:09:05;;;;;;;9.75;5.47;;;6.90;99.90;;;8.23;100.00;98667.09;5054297;28;20021;-79
2022/01/04 06:17:00;;;;;;;11.05;5.93;;;6.90;99.90;;;8.20;100.00;98653.19;5053850;28;19923;-79
2022/01/04 06:19:29;;;;;;;9.60;5.60;;;6.90;99.90;;;8.24;100.00;98651.22;5053770;28;20569;-80
2022/01/04 06:21:57;;;;;;;9.85;5.75;;;6.90;99.90;;;8.08;100.00;98657.09;5053083;28;20029;-79
2022/01/04 06:24:23;;;;;;;10.43;5.95;;;6.90;99.90;;;8.00;100.00;98649.91;5036549;28;20032;-78
2022/01/04 06:26:50;;;;;;;12.52;6.80;;;6.90;99.90;;;8.18;100.00;98647.22;5055977;28;20028;-80
2022/01/04 06:29:23;;;;;;;10.77;6.10;;;6.90;99.90;;;8.18;100.00;98650.81;5073522;28;20043;-77
2022/01/04 06:31:49;;;;;;;11.52;6.03;;;6.90;99.90;;;8.11;100.00;98645.22;5073487;28;20029;-80
2022/01/04 06:34:15;;;;;;;10.68;5.53;;;6.90;99.90;;;8.17;100.00;98645.63;5055423;28;20036;-75
2022/01/04 06:36:41;;;;;;;10.48;6.75;;;6.80;99.90;;;8.13;100.00;98640.03;5054873;28;20496;-80
2022/01/04 06:39:13;;;;;;;12.18;6.82;;;6.80;99.90;;;8.13;100.00;98637.25;5055083;28;20078;-78
2022/01/04 06:41:42;;;;;;;11.38;6.63;;;6.80;99.90;;;8.18;100.00;98655.56;5073222;28;20536;-80
2022/01/04 06:44:11;;;;;;;12.77;6.63;;;6.80;99.90;;;8.17;100.00;98645.63;5074359;28;20081;-80
2022/01/04 06:46:45;;;;;;;12.07;7.03;;;6.80;99.90;;;8.12;100.00;98641.25;5074569;28;20024;-79
2022/01/04 06:49:15;;;;;;;12.10;6.78;;;6.80;99.90;;;7.96;100.00;98643.56;5056433;28;20027;-77
2022/01/04 06:51:42;;;;;;;12.50;5.82;;;6.80;99.90;;;8.14;100.00;98626.94;5073249;28;20024;-76
2022/01/04 06:54:12;;;;;;;12.85;6.85;;;6.80;99.90;;;8.14;100.00;98635.28;5072667;28;20039;-76
2022/01/04 06:56:42;;;;;;;10.70;6.80;;;6.80;99.90;;;8.16;100.00;98619.78;5055529;28;20060;-80
2022/01/04 06:59:08;;;;;;;11.48;5.85;;;6.90;99.90;;;8.19;100.00;98613.44;5073459;28;20029;-79
2022/01/04 07:01:37;;;;;;;10.63;6.75;;;6.90;99.90;;;8.22;100.00;98609.88;5055136;28;20083;-77
2022/01/04 07:04:05;;;;;;;12.73;6.20;;;6.90;99.90;;;8.21;100.00;98611.09;5072611;28;20050;-77
2022/01/04 07:06:32;;;;;;;10.95;6.22;;;6.90;99.90;;;8.04;100.00;98603.47;5072539;28;20025;-76
2022/01/04 07:09:07;;;;;;;11.02;5.85;;;6.90;99.90;;;8.07;100.00;98599.09;5072962;28;20035;-77
2022/01/04 07:11:35;;;;;;;10.43;6.18;;;6.90;99.90;;;8.17;100.00;98598.34;5054460;28;20032;-78
2022/01/04 07:14:03;;;;;;;12.48;6.72;;;6.90;99.90;;;8.04;100.00;98608.22;5054929;28;20082;-77
2022/01/04 07:16:32;;;;;;;11.32;6.38;;;6.90;99.90;;;8.20;100.00;98603.94;5072765;28;20386;-80
2022/01/04 07:18:58;;;;;;;7.78;5.63;;;6.90;99.90;;;8.17;100.00;98615.03;5076699;28;20506;-79
2022/01/04 07:21:24;;;;;;;11.98;6.07;;;6.90;99.90;;;8.24;100.00;98612.28;5075727;28;20060;-80
2022/01/04 07:23:54;;;;;;;11.10;5.47;;;6.90;99.90;;;8.24;100.00;98620.63;5072680;28;20027;-79
2022/01/04 07:26:20;;;;;;;11.07;6.28;;;6.90;99.90;;;8.29;100.00;98621.06;5056176;28;20032;-77
2022/01/04 07:28:48;;;;;;;10.00;6.20;;;6.90;99.90;;;8.30;100.00;98616.31;5052186;28;20163;-78
2022/01/04 07:31:16;;;;;;;13.65;6.95;;;6.90;99.90;;;8.19;100.00;98613.44;5054343;28;20040;-79
2022/01/04 07:33:44;;;;;;;11.75;5.90;;;6.90;99.90;;;8.33;100.00;98610.75;5035835;28;20039;-80
2022/01/04 07:36:10;;;;;;;15.18;7.15;;;6.90;99.90;;;8.30;100.00;98599.63;5055555;28;20032;-79
2022/01/04 07:38:41;;;;;;;12.35;6.43;;;6.90;99.90;;;8.32;100.00;98600.03;5053934;28;20118;-79
2022/01/04 07:41:08;;;;;;;10.70;6.35;;;7.00;99.90;;;8.28;100.00;98580.53;5063566;28;20496;-80
2022/01/04 07:43:34;;;;;;;11.55;6.95;;;7.00;99.90;;;8.33;100.00;98593.28;5068942;28;20039;-80
2022/01/04 07:46:00;;;;;;;12.68;7.80;;;7.00;99.90;;;8.29;100.00;98590.47;5047625;28;20456;-79
2022/01/04 07:48:26;;;;;;;12.73;7.07;;;7.00;99.90;;;8.31;100.00;98599.25;5054235;28;20079;-78
2022/01/04 07:51:00;;;;;;;13.13;8.43;;;7.00;99.90;;;8.25;100.00;98586.84;5053316;28;20112;-79
2022/01/04 07:53:26;;;;;;;14.20;7.88;;;7.00;99.90;;;8.32;100.00;98589.69;5053513;28;20029;-79
2022/01/04 07:55:52;;;;;;;16.27;8.00;;;7.00;99.90;;;8.27;100.00;98592.03;5053776;28;20449;-79
2022/01/04 07:58:18;;;;;;;15.43;8.77;;;7.00;99.90;;;8.31;100.00;98588.13;5035243;28;20032;-78
2022/01/04 08:00:47;;;;;;;14.35;8.63;;;7.00;99.90;;;8.34;100.00;98592.09;5053439;28;20029;-77
2022/01/04 08:03:13;;;;;;;14.32;8.73;;;7.00;99.90;;;8.32;100.00;98586.13;5053748;28;20025;-79
2022/01/04 08:05:40;;;;;;;14.50;8.50;;;7.00;99.90;;;8.33;100.00;98587.72;5035542;28;20092;-79
2022/01/04 08:08:13;;;;;;;13.90;8.60;;;7.00;99.90;;;8.33;100.00;98580.16;5053419;28;20025;-77
2022/01/04 08:10:39;;;;;;;16.23;7.82;;;7.00;99.90;;;8.33;100.00;98577.38;5035689;28;20071;-79
2022/01/04 08:13:05;;;;;;;14.60;9.13;;;7.00;99.90;;;8.34;100.00;98587.34;5053127;28;20025;-77
2022/01/04 08:15:37;;;;;;;14.82;8.57;;;7.00;99.90;;;8.38;100.00;98574.22;5053121;28;20032;-79
2022/01/04 08:18:03;;;;;;;16.27;9.43;;;7.00;99.90;;;8.40;100.00;98563.50;5096224;22;20044;-78
2022/01/04 08:20:32;;;;;;;17.35;9.40;;;7.00;99.90;;;8.39;100.00;98572.22;5075512;28;20489;-78
2022/01/04 08:22:59;;;;;;;14.35;8.60;;;7.10;99.90;;;8.29;100.00;98564.66;5091218;28;20048;-76
2022/01/04 08:25:25;;;;;;;17.75;9.63;;;7.00;99.90;;;8.20;100.00;98570.56;5102563;28;20449;-77
2022/01/04 08:27:54;;;;;;;16.38;9.70;;;7.00;99.90;;;8.32;100.00;98572.22;5114312;28;20114;-79
2022/01/04 08:30:20;;;;;;;15.95;9.38;;;7.00;99.90;;;8.16;100.00;98574.50;5114404;28;20435;-78
2022/01/04 08:32:46;;;;;;;17.35;10.38;;;7.00;99.90;;;8.24;100.00;98567.78;5113797;28;20039;-78
2022/01/04 08:35:13;;;;;;;16.02;8.82;;;7.00;99.90;;;8.36;100.00;98570.25;5113190;28;20027;-76
2022/01/04 08:37:40;;;;;;;17.95;10.00;;;7.00;99.90;;;8.39;100.00;98575.00;5094630;28;20090;-79
2022/01/04 08:40:08;;;;;;;15.60;10.40;;;7.10;99.90;;;8.35;100.00;98574.19;5114114;28;20028;-77
2022/01/04 08:42:37;;;;;;;16.58;10.18;;;7.00;99.90;;;8.32;100.00;98573.00;5112828;28;20027;-77
2022/01/04 08:45:07;;;;;;;16.40;10.55;;;7.10;99.90;;;8.31;100.00;98576.19;5114475;28;20020;-75
2022/01/04 08:47:37;;;;;;;17.80;10.48;;;7.10;99.90;;;8.32;100.00;98566.66;5116512;28;20508;-76
2022/01/04 08:50:09;;;;;;;15.70;9.40;;;7.00;99.90;;;8.24;100.00;98563.03;5116301;28;20043;-77
2022/01/04 08:52:35;;;;;;;18.88;11.45;;;7.00;99.90;;;8.14;100.00;98555.44;5116323;28;20027;-78
2022/01/04 08:55:01;;;;;;;21.13;10.82;;;7.00;99.90;;;8.16;100.00;98541.16;5116459;28;20073;-79
2022/01/04 08:57:27;;;;;;;17.88;11.10;;;7.00;99.90;;;8.16;100.00;98532.81;5116758;28;20024;-78
2022/01/04 08:59:54;;;;;;;17.38;10.40;;;7.00;99.90;;;8.16;100.00;98535.59;5115771;28;20038;-75
2022/01/04 09:02:22;;;;;;;19.45;10.93;;;7.00;99.90;;;8.19;100.00;98540.34;5098467;28;20496;-78
2022/01/04 09:04:49;;;;;;;20.70;11.48;;;7.00;99.90;;;8.25;100.00;98539.59;5117163;28;20034;-78
2022/01/04 09:07:17;;;;;;;22.17;11.48;;;7.00;99.90;;;8.29;100.00;98546.00;5115878;28;20517;-76
2022/01/04 09:09:44;;;;;;;23.02;11.80;;;7.00;99.90;;;8.32;100.00;98547.19;5116296;28;20034;-78
2022/01/04 09:12:11;;;;;;;19.80;11.27;;;7.00;99.90;;;8.40;100.00;98546.81;5116528;28;20135;-78
2022/01/04 09:14:56;;;;;;;19.60;10.52;;;7.00;99.90;;;8.45;100.00;98562.31;5114663;28;20038;-77
2022/01/04 09:20:13;;;;;;;19.98;12.38;;;7.10;99.90;;;8.59;100.00;98576.25;5116140;28;20042;-78
2022/01/04 09:22:40;;;;;;;19.70;11.88;;;7.20;99.90;;;8.62;100.00;98592.16;5116406;28;20471;-79
2022/01/04 09:25:09;;;;;;;17.80;10.82;;;7.20;99.90;;;8.68;100.00;98590.59;5109823;28;20020;-79
2022/01/04 09:27:41;;;;;;;22.58;10.52;;;7.30;99.90;;;8.58;100.00;98590.56;5094035;28;20081;-79
2022/01/04 09:30:08;;;;;;;18.63;10.40;;;7.30;99.90;;;8.61;100.00;98593.34;5077035;28;20024;-78
2022/01/04 09:32:37;;;;;;;18.60;10.07;;;7.30;99.90;;;8.70;100.00;98592.97;5095053;28;20032;-78
2022/01/04 09:35:07;;;;;;;15.90;9.82;;;7.30;99.90;;;8.71;100.00;98603.69;5095524;28;20028;-78
2022/01/04 09:37:36;;;;;;;14.27;9.15;;;7.40;99.90;;;8.66;100.00;98595.75;5077267;28;20399;-79
2022/01/04 09:40:03;;;;;;;15.60;9.65;;;7.30;99.90;;;8.71;100.00;98589.78;5076497;28;20413;-79
2022/01/04 09:42:32;;;;;;;19.02;9.80;;;7.40;99.90;;;8.71;100.00;98589.78;5076671;28;20035;-77
2022/01/04 09:45:06;;;;;;;14.95;9.52;;;7.30;99.90;;;8.65;100.00;98568.31;5076561;28;20288;-77
2022/01/04 09:47:35;;;;;;;14.80;8.65;;;7.30;99.90;;;8.57;100.00;98561.16;5094077;28;20059;-78
2022/01/04 09:50:08;;;;;;;17.27;9.60;;;7.30;99.90;;;8.56;100.00;98554.78;5076618;28;20024;-77
2022/01/04 09:52:38;;;;;;;16.02;9.57;;;7.30;99.90;;;8.66;100.00;98564.34;5094040;28;20032;-78
2022/01/04 09:55:05;;;;;;;17.02;9.27;;;7.30;99.90;;;8.61;100.00;98557.16;5095554;28;20023;-77
2022/01/04 09:57:31;;;;;;;14.45;8.65;;;7.30;99.90;;;8.65;100.00;98557.19;5094954;28;20024;-77
2022/01/04 10:00:01;;;;;;;14.95;8.32;;;7.30;99.90;;;8.73;100.00;98564.34;5094754;28;20023;-77
2022/01/04 10:02:30;;;;;;;18.42;9.02;;;7.40;99.90;;;8.71;100.00;98563.94;5094838;28;20054;-76
2022/01/04 10:05:25;;;;;;;15.15;7.63;;;7.40;99.90;;;8.72;100.00;98574.69;5097569;28;20111;-77
2022/01/04 10:08:06;;;;;;;13.48;7.10;;;7.40;99.90;;;8.68;100.00;98561.94;5091701;28;20087;-77
2022/01/04 10:10:34;;;;;;;13.57;7.85;;;7.40;99.90;;;8.68;100.00;98546.06;5096162;28;20070;-79
2022/01/04 10:13:07;;;;;;;14.15;8.05;;;7.40;99.90;;;8.66;100.00;98534.53;5094935;28;20032;-79
2022/01/04 10:15:47;;;;;;;12.70;7.43;;;7.40;99.90;;;8.70;100.00;98552.00;5094993;28;20039;-77
2022/01/04 10:18:21;;;;;;;13.00;7.88;;;7.40;99.90;;;8.75;100.00;98548.06;5092183;28;20031;-77
2022/01/04 10:21:02;;;;;;;15.23;7.78;;;7.40;99.90;;;8.66;100.00;98545.66;5093015;28;20089;-77
2022/01/04 10:23:29;;;;;;;14.50;7.28;;;7.40;99.90;;;8.69;100.00;98553.22;5095947;28;20028;-78
2022/01/04 10:26:06;;;;;;;15.77;8.15;;;7.40;99.90;;;8.61;100.00;98550.81;5107654;28;20034;-78
2022/01/04 10:28:44;;;;;;;16.38;8.45;;;7.40;99.90;;;8.54;100.00;98548.03;5114877;28;20450;-78
2022/01/04 10:31:16;;;;;;;16.88;9.05;;;7.40;99.90;;;8.61;100.00;98548.81;5114712;28;20031;-77
2022/01/04 10:33:54;;;;;;;15.57;8.88;;;7.40;99.90;;;8.73;100.00;98562.34;5096309;28;20035;-77
2022/01/04 10:36:21;;;;;;;20.10;9.63;;;7.40;99.90;;;8.74;100.00;98558.38;5114375;28;20435;-78
2022/01/04 10:38:51;;;;;;;19.13;9.63;;;7.40;99.90;;;8.71;100.00;98563.94;5114479;28;20427;-77
2022/01/04 10:41:17;;;;;;;17.13;9.57;;;7.40;99.90;;;8.70;100.00;98562.38;5114619;28;20032;-77